Time;durP1;ratioP1;P1;durP2;ratioP2;P2;SDS_P1;SDS_P2;PMS_P1;PMS_P2;Temp;Humidity;BMP_temperature;BMP_pressure;BME280_temperature;BME280_humidity;BME280_pressure;Samples;Min_cycle;Max_cycle;Signal;HPM_P1;HPM_P2
2021/08/08 00:03:11;;;;;;;;;;;21.70;50.90;;;;;;8362855;28;19917;-45
2021/08/08 00:07:11;;;;;;;;;;;21.70;50.90;;;;;;8363887;28;20270;-46
2021/08/08 00:11:12;;;;;;;;;;;21.70;50.90;;;;;;8362982;28;19986;-48
2021/08/08 00:15:12;;;;;;;;;;;21.80;50.90;;;;;;8362629;28;20431;-47
2021/08/08 00:19:13;;;;;;;;;;;21.70;50.90;;;;;;8363287;28;20095;-46
2021/08/08 00:23:14;;;;;;;;;;;21.70;50.90;;;;;;8363237;28;19932;-48
2021/08/08 00:27:14;;;;;;;;;;;21.70;50.90;;;;;;8363048;28;19921;-46
2021/08/08 00:31:16;;;;;;;;;;;21.70;50.90;;;;;;8362870;28;19943;-46
2021/08/08 00:35:19;;;;;;;;;;;21.70;51.40;;;;;;8362890;28;20400;-46
2021/08/08 00:39:20;;;;;;;;;;;21.70;50.90;;;;;;8362220;28;19996;-46
2021/08/08 00:43:21;;;;;;;;;;;21.70;50.90;;;;;;8363482;28;19917;-46
2021/08/08 00:47:21;;;;;;;;;;;21.70;50.90;;;;;;8362785;28;19971;-47
2021/08/08 00:51:22;;;;;;;;;;;21.70;50.90;;;;;;8362017;28;19920;-47
2021/08/08 00:55:22;;;;;;;;;;;21.70;50.90;;;;;;8365891;28;20340;-47
2021/08/08 00:59:23;;;;;;;;;;;21.70;50.90;;;;;;8368963;28;20417;-46
2021/08/08 01:03:24;;;;;;;;;;;21.70;50.90;;;;;;8368807;28;19920;-46
2021/08/08 01:07:31;;;;;;;;;;;21.70;50.90;;;;;;8368768;28;20015;-46
2021/08/08 01:11:32;;;;;;;;;;;21.60;50.90;;;;;;8368429;28;19917;-46
2021/08/08 01:15:33;;;;;;;;;;;21.60;50.90;;;;;;8367650;28;19927;-47
2021/08/08 01:19:37;;;;;;;;;;;21.70;50.90;;;;;;8368977;28;20370;-49
2021/08/08 01:23:38;;;;;;;;;;;21.60;50.90;;;;;;8367825;28;19917;-47
2021/08/08 01:27:39;;;;;;;;;;;21.60;50.90;;;;;;8365969;28;19925;-46
2021/08/08 01:31:47;;;;;;;;;;;21.60;50.90;;;;;;8367614;28;19985;-46
2021/08/08 01:35:49;;;;;;;;;;;21.60;50.90;;;;;;8367356;28;19966;-47
2021/08/08 01:39:54;;;;;;;;;;;21.70;51.00;;;;;;8368386;28;19913;-46
2021/08/08 01:43:55;;;;;;;;;;;21.60;50.90;;;;;;8367449;28;20397;-46
2021/08/08 01:47:58;;;;;;;;;;;21.60;50.90;;;;;;8366934;28;20393;-46
2021/08/08 01:51:59;;;;;;;;;;;21.60;50.90;;;;;;8367333;28;19917;-46
2021/08/08 01:55:59;;;;;;;;;;;21.60;50.90;;;;;;8367832;28;19923;-46
2021/08/08 02:00:02;;;;;;;;;;;21.60;51.00;;;;;;8366466;28;19978;-46
2021/08/08 02:04:12;;;;;;;;;;;21.60;50.90;;;;;;8366655;28;19916;-46
2021/08/08 02:08:13;;;;;;;;;;;21.60;50.90;;;;;;8366971;28;20342;-46
2021/08/08 02:12:13;;;;;;;;;;;21.60;51.00;;;;;;8366181;28;19920;-46
2021/08/08 02:16:14;;;;;;;;;;;21.60;51.00;;;;;;8366896;28;19959;-48
2021/08/08 02:20:17;;;;;;;;;;;21.60;50.90;;;;;;8366153;28;19924;-47
2021/08/08 02:24:18;;;;;;;;;;;21.60;51.00;;;;;;8365585;28;19924;-49
2021/08/08 02:28:18;;;;;;;;;;;21.60;50.90;;;;;;8365800;28;19927;-45
2021/08/08 02:32:19;;;;;;;;;;;21.60;50.90;;;;;;8366528;28;19974;-46
2021/08/08 02:36:19;;;;;;;;;;;21.50;50.90;;;;;;8365265;28;20396;-45
2021/08/08 02:40:20;;;;;;;;;;;21.50;50.90;;;;;;8365572;28;19917;-46
2021/08/08 02:44:20;;;;;;;;;;;21.60;51.00;;;;;;8365406;28;19956;-50
2021/08/08 02:48:21;;;;;;;;;;;21.50;50.90;;;;;;8365570;28;19987;-46
2021/08/08 02:52:21;;;;;;;;;;;21.60;51.00;;;;;;8365047;28;19920;-47
2021/08/08 02:56:22;;;;;;;;;;;21.50;50.90;;;;;;8365094;28;19917;-46
2021/08/08 03:00:22;;;;;;;;;;;21.50;50.90;;;;;;8364407;28;19917;-47
2021/08/08 03:04:23;;;;;;;;;;;21.50;50.90;;;;;;8364943;28;20366;-47
2021/08/08 03:08:23;;;;;;;;;;;21.50;50.90;;;;;;8365913;28;19932;-46
2021/08/08 03:12:23;;;;;;;;;;;21.50;50.90;;;;;;8364068;28;19970;-47
2021/08/08 03:16:24;;;;;;;;;;;21.50;50.90;;;;;;8364093;28;19917;-47
2021/08/08 03:20:24;;;;;;;;;;;21.50;50.90;;;;;;8364294;28;19917;-46
2021/08/08 03:24:25;;;;;;;;;;;21.50;50.90;;;;;;8364517;28;19913;-46
2021/08/08 03:28:25;;;;;;;;;;;21.50;51.00;;;;;;8363993;28;19928;-47
2021/08/08 03:32:26;;;;;;;;;;;21.50;50.90;;;;;;8364008;28;20143;-46
2021/08/08 03:36:26;;;;;;;;;;;21.50;51.00;;;;;;8363384;28;19939;-46
2021/08/08 03:40:27;;;;;;;;;;;21.50;50.90;;;;;;8364821;28;20388;-46
2021/08/08 03:44:27;;;;;;;;;;;21.40;50.90;;;;;;8363838;28;19949;-46
2021/08/08 03:48:28;;;;;;;;;;;21.40;50.90;;;;;;8363114;28;19932;-45
2021/08/08 03:52:28;;;;;;;;;;;21.50;51.00;;;;;;8363507;28;19939;-46
2021/08/08 03:56:28;;;;;;;;;;;21.50;51.00;;;;;;8363450;28;19925;-46
2021/08/08 04:00:29;;;;;;;;;;;21.40;50.90;;;;;;8363551;28;19916;-45
2021/08/08 04:04:30;;;;;;;;;;;21.50;51.00;;;;;;8363384;28;20420;-46
2021/08/08 04:08:30;;;;;;;;;;;21.40;50.90;;;;;;8363556;28;19929;-46
2021/08/08 04:12:31;;;;;;;;;;;21.40;51.00;;;;;;8362573;28;19925;-45
2021/08/08 04:16:31;;;;;;;;;;;21.40;51.00;;;;;;8363709;28;19913;-45
2021/08/08 04:20:32;;;;;;;;;;;21.40;51.00;;;;;;8362827;28;19916;-45
2021/08/08 04:24:32;;;;;;;;;;;21.40;51.00;;;;;;8362513;28;19996;-46
2021/08/08 04:28:39;;;;;;;;;;;21.40;51.00;;;;;;8363343;28;19929;-46
2021/08/08 04:32:39;;;;;;;;;;;21.40;50.90;;;;;;8369512;28;19912;-46
2021/08/08 04:36:40;;;;;;;;;;;21.40;51.50;;;;;;8369583;28;20452;-46
2021/08/08 04:40:40;;;;;;;;;;;21.40;51.00;;;;;;8369252;28;19917;-45
2021/08/08 04:44:41;;;;;;;;;;;21.40;51.00;;;;;;8369103;28;19968;-46
2021/08/08 04:48:41;;;;;;;;;;;21.40;51.00;;;;;;8368542;28;19925;-46
2021/08/08 04:52:42;;;;;;;;;;;21.40;51.00;;;;;;8369461;28;20396;-46
2021/08/08 04:56:43;;;;;;;;;;;21.40;51.00;;;;;;8368865;28;19917;-45
2021/08/08 05:00:44;;;;;;;;;;;21.40;51.00;;;;;;8368340;28;20377;-46
2021/08/08 05:04:44;;;;;;;;;;;21.40;51.00;;;;;;8368502;28;19917;-45
2021/08/08 05:08:44;;;;;;;;;;;21.40;51.00;;;;;;8368776;28;19929;-46
2021/08/08 05:12:45;;;;;;;;;;;21.40;51.00;;;;;;8368390;28;19921;-45
2021/08/08 05:16:45;;;;;;;;;;;21.40;51.00;;;;;;8368393;28;19917;-46
2021/08/08 05:20:46;;;;;;;;;;;21.40;50.90;;;;;;8367549;28;20376;-45
2021/08/08 05:24:46;;;;;;;;;;;21.40;51.00;;;;;;8368148;28;19924;-45
2021/08/08 05:28:47;;;;;;;;;;;21.30;50.90;;;;;;8368544;28;19920;-46
2021/08/08 05:32:47;;;;;;;;;;;21.40;51.00;;;;;;8367278;28;20373;-45
2021/08/08 05:36:47;;;;;;;;;;;21.30;50.90;;;;;;8367681;28;20436;-46
2021/08/08 05:40:48;;;;;;;;;;;21.40;51.00;;;;;;8366833;28;19917;-46
2021/08/08 05:44:48;;;;;;;;;;;21.30;50.90;;;;;;8367545;28;19924;-46
2021/08/08 05:48:49;;;;;;;;;;;21.40;51.00;;;;;;8367364;28;20317;-46
2021/08/08 05:52:50;;;;;;;;;;;21.40;51.00;;;;;;8367120;28;19923;-46
2021/08/08 05:56:50;;;;;;;;;;;21.40;51.00;;;;;;8366452;28;20007;-47
2021/08/08 06:00:51;;;;;;;;;;;21.30;51.00;;;;;;8367365;28;19913;-46
2021/08/08 06:04:51;;;;;;;;;;;21.30;51.00;;;;;;8366849;28;20003;-47
2021/08/08 06:08:52;;;;;;;;;;;21.30;51.00;;;;;;8366619;28;19925;-46
2021/08/08 06:12:53;;;;;;;;;;;21.40;51.00;;;;;;8366460;28;19916;-47
2021/08/08 06:16:53;;;;;;;;;;;21.30;51.00;;;;;;8366185;28;19964;-46
2021/08/08 06:20:54;;;;;;;;;;;21.30;51.00;;;;;;8366490;28;19920;-45
2021/08/08 06:24:54;;;;;;;;;;;21.30;51.20;;;;;;8365941;28;19973;-45
2021/08/08 06:28:56;;;;;;;;;;;21.30;50.90;;;;;;8365854;28;20297;-46
2021/08/08 06:32:56;;;;;;;;;;;21.30;50.90;;;;;;8365264;28;19975;-47
2021/08/08 06:36:57;;;;;;;;;;;21.40;51.00;;;;;;8366395;28;19917;-46
2021/08/08 06:40:57;;;;;;;;;;;21.40;51.00;;;;;;8365698;28;20282;-46
2021/08/08 06:44:58;;;;;;;;;;;21.40;51.00;;;;;;8364845;28;20370;-45
2021/08/08 06:48:58;;;;;;;;;;;21.40;51.00;;;;;;8365210;28;19925;-46
2021/08/08 06:52:58;;;;;;;;;;;21.40;51.00;;;;;;8364708;28;19951;-48
2021/08/08 06:56:59;;;;;;;;;;;21.40;51.00;;;;;;8364876;28;19936;-46
2021/08/08 07:00:59;;;;;;;;;;;21.40;51.00;;;;;;8364792;28;19924;-46
2021/08/08 07:05:01;;;;;;;;;;;21.40;51.00;;;;;;8364743;28;19939;-46
2021/08/08 07:09:02;;;;;;;;;;;21.40;51.00;;;;;;8364628;28;19925;-46
2021/08/08 07:13:02;;;;;;;;;;;21.40;51.10;;;;;;8365424;28;19917;-46
2021/08/08 07:17:03;;;;;;;;;;;21.40;51.10;;;;;;8364409;28;20377;-46
2021/08/08 07:21:04;;;;;;;;;;;21.40;51.10;;;;;;8364214;28;19924;-46
2021/08/08 07:25:05;;;;;;;;;;;21.40;51.10;;;;;;8364301;28;19978;-46
2021/08/08 07:29:05;;;;;;;;;;;21.40;51.10;;;;;;8364905;28;20011;-46
2021/08/08 07:33:06;;;;;;;;;;;21.40;51.10;;;;;;8363707;28;20012;-46
2021/08/08 07:37:06;;;;;;;;;;;21.40;51.10;;;;;;8364131;28;20436;-46
2021/08/08 07:41:11;;;;;;;;;;;21.40;51.20;;;;;;8363738;28;19913;-45
2021/08/08 07:45:11;;;;;;;;;;;21.40;51.10;;;;;;8363198;28;20324;-46
2021/08/08 07:49:12;;;;;;;;;;;21.40;51.10;;;;;;8364221;28;20042;-47
2021/08/08 07:53:12;;;;;;;;;;;21.40;51.20;;;;;;8363351;28;19970;-46
2021/08/08 07:57:13;;;;;;;;;;;21.40;51.20;;;;;;8362946;28;20322;-46
2021/08/08 08:01:13;;;;;;;;;;;21.40;51.20;;;;;;8363617;28;20412;-46
2021/08/08 08:05:14;;;;;;;;;;;21.40;51.20;;;;;;8363761;28;19987;-46
2021/08/08 08:09:14;;;;;;;;;;;21.40;51.20;;;;;;8362496;28;19948;-46
2021/08/08 08:13:15;;;;;;;;;;;21.40;51.10;;;;;;8363196;28;19925;-47
2021/08/08 08:17:15;;;;;;;;;;;21.40;51.10;;;;;;8363052;28;19921;-46
2021/08/08 08:21:15;;;;;;;;;;;21.40;51.10;;;;;;8363371;28;19975;-45
2021/08/08 08:25:17;;;;;;;;;;;21.40;51.10;;;;;;8363027;28;19931;-45
2021/08/08 08:29:20;;;;;;;;;;;21.50;51.10;;;;;;8363009;28;19925;-45
2021/08/08 08:33:20;;;;;;;;;;;21.50;51.10;;;;;;8362331;28;20014;-45
2021/08/08 08:37:21;;;;;;;;;;;21.50;51.10;;;;;;8362663;28;19917;-46
2021/08/08 08:41:25;;;;;;;;;;;21.50;51.00;;;;;;8363304;28;20362;-45
2021/08/08 08:45:25;;;;;;;;;;;21.50;51.00;;;;;;8362219;28;20445;-45
2021/08/08 08:49:26;;;;;;;;;;;21.50;51.00;;;;;;8362549;28;19925;-46
2021/08/08 08:53:27;;;;;;;;;;;21.50;51.00;;;;;;8362552;28;19917;-46
2021/08/08 08:57:28;;;;;;;;;;;21.60;51.00;;;;;;8362647;28;19967;-45
2021/08/08 09:01:28;;;;;;;;;;;21.60;51.00;;;;;;8362365;28;19990;-46
2021/08/08 09:05:30;;;;;;;;;;;21.60;51.00;;;;;;8362294;28;20316;-45
2021/08/08 09:09:31;;;;;;;;;;;21.60;50.90;;;;;;8361738;28;19932;-45
2021/08/08 09:13:46;;;;;;;;;;;21.60;50.90;;;;;;8362440;28;19923;-46
2021/08/08 09:17:46;;;;;;;;;;;21.60;50.80;;;;;;8367895;28;20293;-45
2021/08/08 09:21:47;;;;;;;;;;;21.60;50.80;;;;;;8368123;28;19916;-46
2021/08/08 09:25:55;;;;;;;;;;;21.60;50.70;;;;;;8367874;28;19913;-46
2021/08/08 09:29:56;;;;;;;;;;;21.70;50.80;;;;;;8367048;28;19931;-45
2021/08/08 09:33:56;;;;;;;;;;;21.60;50.70;;;;;;8368766;28;19917;-46
2021/08/08 09:37:58;;;;;;;;;;;21.60;50.70;;;;;;8366581;28;19961;-46
2021/08/08 09:42:05;;;;;;;;;;;21.70;50.70;;;;;;8366963;28;19955;-46
2021/08/08 09:46:16;;;;;;;;;;;21.60;50.70;;;;;;8367693;28;19916;-45
2021/08/08 09:50:20;;;;;;;;;;;21.70;50.70;;;;;;8367048;28;20278;-46
2021/08/08 09:54:21;;;;;;;;;;;21.70;50.70;;;;;;8367319;28;19917;-45
2021/08/08 09:58:22;;;;;;;;;;;21.70;50.70;;;;;;8367276;28;19982;-45
2021/08/08 10:02:22;;;;;;;;;;;21.70;50.60;;;;;;8366784;28;19913;-46
2021/08/08 10:06:23;;;;;;;;;;;21.70;50.60;;;;;;8366287;28;20352;-46
2021/08/08 10:10:23;;;;;;;;;;;21.70;50.60;;;;;;8367306;28;20023;-45
2021/08/08 10:14:24;;;;;;;;;;;21.70;50.60;;;;;;8366617;28;19924;-46
2021/08/08 10:18:29;;;;;;;;;;;21.70;50.50;;;;;;8351338;28;19917;-46
2021/08/08 10:22:32;;;;;;;;;;;21.70;50.50;;;;;;8320985;28;19921;-47
2021/08/08 10:26:32;;;;;;;;;;;21.70;50.50;;;;;;8326535;28;19931;-46
2021/08/08 10:30:33;;;;;;;;;;;21.70;50.50;;;;;;8366154;28;19925;-46
2021/08/08 10:34:34;;;;;;;;;;;21.80;50.50;;;;;;8366079;28;19917;-45
2021/08/08 10:38:35;;;;;;;;;;;21.80;50.50;;;;;;8365796;28;20373;-46
2021/08/08 10:42:45;;;;;;;;;;;21.80;50.50;;;;;;8365123;28;19917;-45
2021/08/08 10:46:50;;;;;;;;;;;21.80;50.50;;;;;;8366397;28;20369;-45
2021/08/08 10:50:50;;;;;;;;;;;21.80;50.40;;;;;;8364799;28;19971;-47
2021/08/08 10:54:52;;;;;;;;;;;21.80;50.40;;;;;;8365198;28;19916;-45
2021/08/08 10:58:53;;;;;;;;;;;21.80;50.40;;;;;;8364943;28;19917;-45
2021/08/08 11:02:53;;;;;;;;;;;21.80;50.90;;;;;;8364763;28;19970;-46
2021/08/08 11:06:54;;;;;;;;;;;21.80;50.30;;;;;;8365465;28;19921;-46
2021/08/08 11:10:54;;;;;;;;;;;21.80;50.30;;;;;;8364796;28;19916;-45
2021/08/08 11:14:54;;;;;;;;;;;21.80;50.30;;;;;;8364201;28;19970;-45
2021/08/08 11:18:56;;;;;;;;;;;21.90;50.30;;;;;;8364466;28;19917;-45
2021/08/08 11:22:57;;;;;;;;;;;21.80;50.30;;;;;;8362587;28;20431;-45
2021/08/08 11:26:58;;;;;;;;;;;21.90;50.30;;;;;;8363781;28;19917;-45
2021/08/08 11:30:58;;;;;;;;;;;21.90;50.30;;;;;;8364427;28;19951;-46
2021/08/08 11:35:08;;;;;;;;;;;21.90;50.30;;;;;;8363958;28;19971;-46
2021/08/08 11:39:10;;;;;;;;;;;21.90;50.20;;;;;;8362976;28;20451;-46
2021/08/08 11:43:12;;;;;;;;;;;21.90;50.20;;;;;;8364756;28;20006;-46
2021/08/08 11:47:22;;;;;;;;;;;21.90;50.10;;;;;;8363832;28;20294;-46
2021/08/08 11:51:23;;;;;;;;;;;22.00;50.20;;;;;;8363266;28;19917;-46
2021/08/08 11:55:24;;;;;;;;;;;22.00;50.20;;;;;;8363656;28;20401;-46
2021/08/08 11:59:25;;;;;;;;;;;22.00;50.20;;;;;;8364147;28;19996;-46
2021/08/08 12:03:31;;;;;;;;;;;22.00;50.00;;;;;;8362977;28;19917;-45
2021/08/08 12:07:32;;;;;;;;;;;22.10;50.10;;;;;;8363359;28;19932;-46
2021/08/08 12:11:46;;;;;;;;;;;22.10;50.60;;;;;;8363205;28;19963;-46
2021/08/08 12:15:47;;;;;;;;;;;22.10;50.00;;;;;;8362861;28;19993;-46
2021/08/08 12:19:48;;;;;;;;;;;22.10;50.00;;;;;;8363798;28;19913;-46
2021/08/08 12:23:49;;;;;;;;;;;22.10;49.90;;;;;;8362546;28;19944;-46
2021/08/08 12:27:53;;;;;;;;;;;22.10;50.00;;;;;;8362946;28;20317;-45
2021/08/08 12:32:03;;;;;;;;;;;22.10;49.90;;;;;;8363081;28;19923;-48
2021/08/08 12:36:11;;;;;;;;;;;22.10;49.90;;;;;;8363246;28;19925;-46
2021/08/08 12:40:16;;;;;;;;;;;22.10;49.80;;;;;;8363119;28;19923;-45
2021/08/08 12:44:28;;;;;;;;;;;22.10;49.80;;;;;;8362669;28;19999;-46
2021/08/08 12:48:30;;;;;;;;;;;22.20;49.90;;;;;;8362332;28;19925;-45
2021/08/08 12:52:31;;;;;;;;;;;22.10;49.80;;;;;;8367949;28;19913;-46
2021/08/08 12:56:31;;;;;;;;;;;22.20;49.90;;;;;;8369705;28;19916;-47
2021/08/08 13:00:32;;;;;;;;;;;22.20;50.30;;;;;;8368515;28;19917;-46
2021/08/08 13:04:33;;;;;;;;;;;22.20;49.80;;;;;;8368713;28;20400;-46
2021/08/08 13:08:33;;;;;;;;;;;22.20;49.80;;;;;;8369054;28;19929;-45
2021/08/08 13:12:39;;;;;;;;;;;22.20;49.70;;;;;;8368802;28;19952;-48
2021/08/08 13:16:39;;;;;;;;;;;22.20;49.60;;;;;;8371793;28;19917;-46
2021/08/08 13:20:40;;;;;;;;;;;22.30;49.70;;;;;;8368147;28;20366;-49
2021/08/08 13:24:40;;;;;;;;;;;22.30;49.60;;;;;;8367610;28;19924;-45
2021/08/08 13:28:41;;;;;;;;;;;22.30;49.60;;;;;;8368034;28;19929;-45
2021/08/08 13:32:41;;;;;;;;;;;22.30;49.50;;;;;;8368596;28;19963;-45
2021/08/08 13:36:42;;;;;;;;;;;22.30;49.50;;;;;;8367260;28;19916;-46
2021/08/08 13:40:43;;;;;;;;;;;22.30;49.60;;;;;;8367512;28;20286;-44
2021/08/08 13:44:43;;;;;;;;;;;22.30;49.40;;;;;;8367186;28;19920;-44
2021/08/08 13:48:44;;;;;;;;;;;22.30;49.40;;;;;;8368282;28;20437;-44
2021/08/08 13:52:44;;;;;;;;;;;22.40;49.50;;;;;;8367355;28;19916;-43
2021/08/08 13:56:45;;;;;;;;;;;22.30;49.30;;;;;;8366699;28;19917;-44
2021/08/08 14:00:46;;;;;;;;;;;22.40;49.50;;;;;;8366530;28;19916;-44
2021/08/08 14:04:46;;;;;;;;;;;22.40;49.40;;;;;;8367090;28;19999;-45
2021/08/08 14:08:46;;;;;;;;;;;22.40;49.30;;;;;;8367663;28;20277;-47
2021/08/08 14:12:47;;;;;;;;;;;22.40;49.30;;;;;;8366422;28;19921;-44
2021/08/08 14:16:47;;;;;;;;;;;22.40;49.40;;;;;;8366496;28;19917;-44
2021/08/08 14:20:48;;;;;;;;;;;22.40;49.40;;;;;;8365821;28;20003;-44
2021/08/08 14:24:48;;;;;;;;;;;22.40;49.30;;;;;;8367100;28;19967;-44
2021/08/08 14:28:49;;;;;;;;;;;22.40;49.30;;;;;;8365995;28;19924;-44
2021/08/08 14:32:49;;;;;;;;;;;22.40;49.20;;;;;;8365672;28;20370;-44
2021/08/08 14:36:49;;;;;;;;;;;22.40;49.30;;;;;;8365769;28;19917;-44
2021/08/08 14:40:51;;;;;;;;;;;22.40;49.20;;;;;;8366416;28;19913;-44
2021/08/08 14:44:51;;;;;;;;;;;22.40;49.20;;;;;;8365158;28;19917;-44
2021/08/08 14:48:51;;;;;;;;;;;22.40;49.30;;;;;;8365402;28;20328;-46
2021/08/08 14:52:52;;;;;;;;;;;22.40;49.20;;;;;;8365358;28;19916;-45
2021/08/08 14:56:52;;;;;;;;;;;22.50;49.30;;;;;;8364804;28;19913;-44
2021/08/08 15:00:53;;;;;;;;;;;22.50;49.20;;;;;;8366128;28;19991;-45
2021/08/08 15:04:53;;;;;;;;;;;22.50;49.30;;;;;;8364879;28;19963;-45
2021/08/08 15:08:54;;;;;;;;;;;22.50;49.30;;;;;;8364979;28;19978;-46
2021/08/08 15:12:56;;;;;;;;;;;22.50;49.10;;;;;;8363986;28;20328;-46
2021/08/08 15:16:57;;;;;;;;;;;22.50;49.20;;;;;;8365304;28;20109;-45
2021/08/08 15:20:58;;;;;;;;;;;22.50;49.20;;;;;;8363941;28;20011;-46
2021/08/08 15:24:58;;;;;;;;;;;22.50;49.20;;;;;;8364167;28;19971;-47
2021/08/08 15:28:59;;;;;;;;;;;22.50;49.10;;;;;;8364229;28;19928;-47
2021/08/08 15:32:59;;;;;;;;;;;22.50;49.20;;;;;;8364487;28;20211;-46
2021/08/08 15:37:00;;;;;;;;;;;22.50;49.10;;;;;;8363902;28;20047;-46
2021/08/08 15:41:01;;;;;;;;;;;22.50;49.10;;;;;;8363775;28;19939;-46
2021/08/08 15:45:06;;;;;;;;;;;22.50;49.10;;;;;;8363493;28;19929;-47
2021/08/08 15:49:06;;;;;;;;;;;22.50;49.10;;;;;;8363932;28;20047;-47
2021/08/08 15:53:07;;;;;;;;;;;22.50;49.10;;;;;;8364540;28;19925;-46
2021/08/08 15:57:07;;;;;;;;;;;22.50;49.20;;;;;;8363140;28;19923;-46
2021/08/08 16:01:08;;;;;;;;;;;22.50;49.10;;;;;;8363323;28;19917;-46
2021/08/08 16:05:08;;;;;;;;;;;22.50;49.10;;;;;;8363281;28;19952;-46
2021/08/08 16:09:10;;;;;;;;;;;22.50;49.10;;;;;;8363774;28;19937;-45
2021/08/08 16:13:10;;;;;;;;;;;22.50;49.10;;;;;;8363471;28;19974;-46
2021/08/08 16:17:11;;;;;;;;;;;22.50;49.10;;;;;;8362998;28;19970;-49
2021/08/08 16:21:12;;;;;;;;;;;22.50;49.10;;;;;;8362545;28;20030;-47
2021/08/08 16:25:13;;;;;;;;;;;22.50;49.00;;;;;;8366894;28;19959;-46
2021/08/08 16:29:13;;;;;;;;;;;22.50;49.00;;;;;;8370516;28;20312;-48
2021/08/08 16:33:14;;;;;;;;;;;22.50;49.00;;;;;;8369308;28;19917;-46
2021/08/08 16:37:14;;;;;;;;;;;22.50;49.10;;;;;;8369792;28;19959;-45
2021/08/08 16:41:15;;;;;;;;;;;22.50;49.10;;;;;;8369323;28;19920;-47
2021/08/08 16:45:16;;;;;;;;;;;22.50;49.00;;;;;;8369677;28;19917;-45
2021/08/08 16:49:17;;;;;;;;;;;22.50;49.10;;;;;;8369400;28;20007;-45
2021/08/08 16:53:17;;;;;;;;;;;22.50;49.10;;;;;;8369073;28;20365;-46
2021/08/08 16:57:18;;;;;;;;;;;22.50;49.10;;;;;;8368572;28;19952;-47
2021/08/08 17:01:18;;;;;;;;;;;22.50;49.00;;;;;;8385007;28;19917;-47
2021/08/08 17:05:19;;;;;;;;;;;22.50;49.00;;;;;;8368873;28;19924;-46
2021/08/08 17:09:19;;;;;;;;;;;22.50;49.10;;;;;;8368507;28;20344;-48
2021/08/08 17:13:20;;;;;;;;;;;22.50;49.00;;;;;;8367296;28;19913;-46
2021/08/08 17:17:20;;;;;;;;;;;22.50;49.00;;;;;;8368539;28;19963;-46
2021/08/08 17:21:21;;;;;;;;;;;22.50;49.00;;;;;;8368504;28;19963;-45
2021/08/08 17:25:21;;;;;;;;;;;22.50;49.00;;;;;;8368136;28;19935;-46
2021/08/08 17:29:22;;;;;;;;;;;22.50;49.00;;;;;;8367948;28;19928;-45
2021/08/08 17:33:22;;;;;;;;;;;22.50;48.90;;;;;;8367544;28;20265;-45
2021/08/08 17:37:23;;;;;;;;;;;22.50;48.90;;;;;;8368018;28;19913;-46
2021/08/08 17:41:23;;;;;;;;;;;22.50;48.90;;;;;;8367648;28;20382;-45
2021/08/08 17:45:24;;;;;;;;;;;22.50;49.00;;;;;;8367266;28;20003;-45
2021/08/08 17:49:24;;;;;;;;;;;22.50;48.90;;;;;;8367269;28;19928;-46
2021/08/08 17:53:25;;;;;;;;;;;22.50;48.90;;;;;;8368062;28;19917;-46
2021/08/08 17:57:25;;;;;;;;;;;22.50;49.00;;;;;;8366710;28;20401;-46
2021/08/08 18:01:27;;;;;;;;;;;22.50;48.90;;;;;;8367242;28;19940;-46
2021/08/08 18:05:27;;;;;;;;;;;22.50;49.00;;;;;;8367228;28;20385;-45
2021/08/08 18:09:28;;;;;;;;;;;22.40;49.00;;;;;;8366831;28;20027;-46
2021/08/08 18:13:28;;;;;;;;;;;22.50;49.00;;;;;;8367255;28;19920;-46
2021/08/08 18:17:29;;;;;;;;;;;22.40;48.90;;;;;;8366567;28;19981;-46
2021/08/08 18:21:30;;;;;;;;;;;22.50;49.00;;;;;;8366041;28;19921;-46
2021/08/08 18:25:30;;;;;;;;;;;22.50;49.00;;;;;;8366223;28;19966;-46
2021/08/08 18:29:31;;;;;;;;;;;22.40;49.00;;;;;;8366984;28;20355;-49
2021/08/08 18:33:31;;;;;;;;;;;22.40;49.00;;;;;;8365642;28;19917;-46
2021/08/08 18:37:32;;;;;;;;;;;22.40;49.00;;;;;;8365991;28;19923;-46
2021/08/08 18:41:32;;;;;;;;;;;22.40;49.00;;;;;;8365574;28;20003;-46
2021/08/08 18:45:33;;;;;;;;;;;22.40;49.00;;;;;;8365270;28;20373;-47
2021/08/08 18:49:33;;;;;;;;;;;22.40;49.00;;;;;;8364748;28;19963;-46
2021/08/08 18:53:34;;;;;;;;;;;22.40;49.60;;;;;;8365114;28;19917;-45
2021/08/08 18:57:34;;;;;;;;;;;22.40;49.50;;;;;;8364842;28;19917;-46
2021/08/08 19:01:35;;;;;;;;;;;22.40;49.00;;;;;;8364949;28;20389;-45
2021/08/08 19:05:36;;;;;;;;;;;22.40;49.00;;;;;;8365778;28;20003;-45
2021/08/08 19:09:36;;;;;;;;;;;22.40;49.00;;;;;;8364296;28;19974;-46
2021/08/08 19:13:37;;;;;;;;;;;22.40;49.10;;;;;;8365069;28;20282;-46
2021/08/08 19:17:38;;;;;;;;;;;22.40;49.10;;;;;;8364748;28;19917;-46
2021/08/08 19:21:38;;;;;;;;;;;22.30;49.00;;;;;;8364846;28;19917;-45
2021/08/08 19:25:39;;;;;;;;;;;22.40;49.10;;;;;;8364572;28;19917;-44
2021/08/08 19:29:39;;;;;;;;;;;22.30;49.10;;;;;;8364199;28;20338;-46
2021/08/08 19:33:42;;;;;;;;;;;22.30;49.10;;;;;;8363768;28;20392;-44
2021/08/08 19:37:43;;;;;;;;;;;22.30;49.10;;;;;;8363885;28;19927;-46
2021/08/08 19:41:43;;;;;;;;;;;22.30;49.10;;;;;;8364193;28;19921;-45
2021/08/08 19:45:44;;;;;;;;;;;22.30;49.10;;;;;;8364004;28;19978;-46
2021/08/08 19:49:45;;;;;;;;;;;22.30;49.10;;;;;;8363620;28;20062;-45
2021/08/08 19:53:45;;;;;;;;;;;22.30;49.10;;;;;;8363342;28;19949;-45
2021/08/08 19:57:46;;;;;;;;;;;22.30;49.10;;;;;;8364727;28;19920;-45
2021/08/08 20:01:47;;;;;;;;;;;22.30;49.10;;;;;;8363235;28;19924;-47
2021/08/08 20:05:48;;;;;;;;;;;22.30;49.20;;;;;;8362938;28;19917;-46
2021/08/08 20:09:48;;;;;;;;;;;22.30;49.20;;;;;;8363042;28;20399;-45
2021/08/08 20:13:50;;;;;;;;;;;22.30;49.20;;;;;;8363493;28;21277;-45
2021/08/08 20:17:51;;;;;;;;;;;22.30;49.20;;;;;;8362737;28;20392;-46
2021/08/08 20:21:51;;;;;;;;;;;22.30;49.20;;;;;;8363358;28;19990;-46
2021/08/08 20:25:52;;;;;;;;;;;22.30;49.20;;;;;;8363134;28;19920;-47
2021/08/08 20:29:54;;;;;;;;;;;22.20;49.10;;;;;;8362513;28;19974;-47
2021/08/08 20:33:54;;;;;;;;;;;22.20;49.10;;;;;;8363543;28;20362;-45
2021/08/08 20:37:55;;;;;;;;;;;22.20;49.10;;;;;;8363059;28;19924;-47
2021/08/08 20:41:56;;;;;;;;;;;22.20;49.10;;;;;;8362365;28;19920;-46
2021/08/08 20:45:56;;;;;;;;;;;22.20;49.10;;;;;;8362695;28;19955;-49
2021/08/08 20:49:57;;;;;;;;;;;22.20;49.10;;;;;;8363293;28;19925;-49
2021/08/08 20:53:57;;;;;;;;;;;22.20;49.10;;;;;;8362173;28;19921;-46
2021/08/08 20:57:57;;;;;;;;;;;22.20;49.10;;;;;;8362593;28;19921;-47
2021/08/08 21:01:58;;;;;;;;;;;22.20;49.10;;;;;;8362539;28;20328;-48
2021/08/08 21:05:58;;;;;;;;;;;22.20;49.10;;;;;;8362268;28;19917;-45
2021/08/08 21:09:59;;;;;;;;;;;22.20;49.10;;;;;;8363284;28;19924;-48
2021/08/08 21:13:59;;;;;;;;;;;22.20;49.10;;;;;;8368232;28;19921;-47
2021/08/08 21:18:00;;;;;;;;;;;22.20;49.10;;;;;;8369625;28;19913;-48
2021/08/08 21:22:00;;;;;;;;;;;22.20;49.10;;;;;;8370190;28;20405;-46
2021/08/08 21:26:01;;;;;;;;;;;22.10;49.10;;;;;;8370922;28;20327;-45
2021/08/08 21:30:02;;;;;;;;;;;22.10;49.10;;;;;;8368572;28;19925;-47
2021/08/08 21:34:02;;;;;;;;;;;22.10;49.10;;;;;;8369061;28;19924;-49
2021/08/08 21:38:03;;;;;;;;;;;22.10;49.10;;;;;;8368226;28;19917;-45
2021/08/08 21:42:04;;;;;;;;;;;22.20;49.10;;;;;;8368128;28;19950;-45
2021/08/08 21:46:04;;;;;;;;;;;22.10;49.10;;;;;;8367651;28;19963;-44
2021/08/08 21:50:05;;;;;;;;;;;22.10;49.10;;;;;;8367803;28;19925;-45
2021/08/08 21:54:06;;;;;;;;;;;22.10;49.10;;;;;;8366909;28;19923;-45
2021/08/08 21:58:06;;;;;;;;;;;22.10;49.10;;;;;;8367483;28;19912;-48
2021/08/08 22:02:07;;;;;;;;;;;22.10;49.20;;;;;;8366967;28;19943;-47
2021/08/08 22:06:07;;;;;;;;;;;22.10;49.10;;;;;;8366809;28;19921;-45
2021/08/08 22:10:08;;;;;;;;;;;22.10;49.10;;;;;;8367422;28;19936;-46
2021/08/08 22:14:09;;;;;;;;;;;22.10;49.10;;;;;;8366829;28;19913;-46
2021/08/08 22:18:09;;;;;;;;;;;22.10;49.10;;;;;;8366854;28;19954;-46
2021/08/08 22:22:10;;;;;;;;;;;22.00;49.10;;;;;;8366160;28;19917;-46
2021/08/08 22:26:10;;;;;;;;;;;22.10;49.10;;;;;;8366261;28;19959;-46
2021/08/08 22:30:11;;;;;;;;;;;22.00;49.10;;;;;;8365579;28;19929;-46
2021/08/08 22:34:11;;;;;;;;;;;22.00;49.10;;;;;;8366765;28;19913;-45
2021/08/08 22:38:12;;;;;;;;;;;22.00;49.00;;;;;;8366069;28;20370;-45
2021/08/08 22:42:12;;;;;;;;;;;22.00;49.00;;;;;;8364448;28;20007;-45
2021/08/08 22:46:12;;;;;;;;;;;22.00;49.00;;;;;;8365611;28;19912;-45
2021/08/08 22:50:13;;;;;;;;;;;22.00;49.10;;;;;;8365387;28;20290;-45
2021/08/08 22:54:13;;;;;;;;;;;22.00;49.00;;;;;;8365755;28;19924;-46
2021/08/08 22:58:14;;;;;;;;;;;22.00;49.00;;;;;;8365652;28;19987;-46
2021/08/08 23:02:14;;;;;;;;;;;22.00;49.00;;;;;;8365262;28;19917;-45
2021/08/08 23:06:15;;;;;;;;;;;22.00;49.00;;;;;;8364595;28;20049;-46
2021/08/08 23:10:15;;;;;;;;;;;22.00;49.00;;;;;;8365422;28;19955;-46
2021/08/08 23:14:16;;;;;;;;;;;22.00;49.00;;;;;;8364882;28;20373;-45
2021/08/08 23:18:16;;;;;;;;;;;21.90;49.00;;;;;;8364245;28;19999;-45
2021/08/08 23:22:17;;;;;;;;;;;21.90;49.00;;;;;;8364509;28;19919;-48